Terminal Aerodrome Forecast
Issued by NWS

Home | Current Version | Previous Version | Text Only | Print | Product List | Glossary On
Versions: 1 2 3 4 5 6 7 8 9 10 11 12 13 14 15
479
FTUS43 KDTX 280306 AAA
TAFDET
TAF AMD
KDET 280306Z 2803/2824 24015G25KT P6SM OVC040
     FM280800 24013KT P6SM SCT040
     FM281400 20010KT P6SM SCT100 BKN250
     FM282000 16005KT P6SM SCT060 OVC100=

USA.gov is the U.S. government's official web portal to all federal, state and local government web resources and services.